Time;durP1;ratioP1;P1;durP2;ratioP2;P2;SDS_P1;SDS_P2;PMS_P1;PMS_P2;Temp;Humidity;BMP_temperature;BMP_pressure;BME280_temperature;BME280_humidity;BME280_pressure;Samples;Min_cycle;Max_cycle;Signal;HPM_P1;HPM_P2
2022/12/04 00:01:32;;;;;;;56.25;24.58;;;;;;;;;;5103773;28;20101;-64
2022/12/04 00:03:59;;;;;;;56.03;24.65;;;;;;;;;;5101487;28;20055;-64
2022/12/04 00:06:25;;;;;;;56.15;23.88;;;;;;;;;;5111221;28;20394;-64
2022/12/04 00:08:51;;;;;;;56.33;24.73;;;;;;;;;;5113238;28;20088;-64
2022/12/04 00:11:19;;;;;;;57.35;24.80;;;;;;;;;;5113009;28;20047;-64
2022/12/04 00:13:46;;;;;;;58.92;26.15;;;;;;;;;;5112868;28;20063;-64
2022/12/04 00:16:13;;;;;;;60.92;25.88;;;;;;;;;;5112650;28;20032;-64
2022/12/04 00:18:39;;;;;;;56.05;26.00;;;;;;;;;;5097854;28;20063;-64
2022/12/04 00:21:06;;;;;;;53.22;24.92;;;;;;;;;;5110823;28;20048;-64
2022/12/04 00:23:32;;;;;;;59.15;26.08;;;;;;;;;;5093047;28;20383;-64
2022/12/04 00:26:02;;;;;;;54.97;23.50;;;;;;;;;;5099958;28;20088;-64
2022/12/04 00:28:28;;;;;;;55.08;24.48;;;;;;;;;;5112973;28;20126;-64
2022/12/04 00:30:54;;;;;;;53.50;23.30;;;;;;;;;;5113144;28;20044;-64
2022/12/04 00:33:20;;;;;;;59.88;26.13;;;;;;;;;;5113286;28;20406;-64
2022/12/04 00:35:47;;;;;;;57.05;25.35;;;;;;;;;;5094606;28;20051;-64
2022/12/04 00:38:13;;;;;;;56.15;24.13;;;;;;;;;;5092706;28;20044;-64
2022/12/04 00:40:39;;;;;;;55.00;23.40;;;;;;;;;;5092700;28;20115;-64
2022/12/04 00:43:05;;;;;;;56.70;24.77;;;;;;;;;;5092336;28;20139;-64
2022/12/04 00:45:31;;;;;;;56.97;25.95;;;;;;;;;;5091339;28;20043;-64
2022/12/04 00:47:57;;;;;;;54.35;24.52;;;;;;;;;;5092666;28;20086;-64
2022/12/04 00:50:23;;;;;;;56.90;24.90;;;;;;;;;;5091583;28;20044;-64
2022/12/04 00:52:49;;;;;;;54.80;23.70;;;;;;;;;;5110174;28;20040;-64
2022/12/04 00:55:15;;;;;;;53.72;24.50;;;;;;;;;;5112451;28;20036;-64
2022/12/04 00:57:41;;;;;;;54.35;24.17;;;;;;;;;;5111051;28;20039;-64
2022/12/04 01:00:07;;;;;;;57.95;24.52;;;;;;;;;;5112529;28;20043;-64
2022/12/04 01:02:33;;;;;;;59.72;25.55;;;;;;;;;;5112498;28;20035;-64
2022/12/04 01:05:00;;;;;;;57.85;25.08;;;;;;;;;;5094626;28;20498;-64
2022/12/04 01:07:26;;;;;;;58.67;24.35;;;;;;;;;;5091130;28;20042;-64
2022/12/04 01:09:52;;;;;;;57.55;24.75;;;;;;;;;;5105900;28;20051;-64
2022/12/04 01:12:18;;;;;;;57.45;25.48;;;;;;;;;;5112066;28;20039;-64
2022/12/04 01:14:44;;;;;;;55.65;25.17;;;;;;;;;;5112322;28;20035;-64
2022/12/04 01:17:10;;;;;;;54.75;24.42;;;;;;;;;;5112240;28;20090;-64
2022/12/04 01:19:36;;;;;;;53.90;24.70;;;;;;;;;;5112485;28;20067;-64
2022/12/04 01:22:03;;;;;;;55.45;24.50;;;;;;;;;;5111629;28;20035;-64
2022/12/04 01:24:28;;;;;;;56.10;24.67;;;;;;;;;;5112280;28;20058;-64
2022/12/04 01:26:55;;;;;;;60.90;26.42;;;;;;;;;;5112177;28;20470;-64
2022/12/04 01:29:20;;;;;;;56.40;25.83;;;;;;;;;;5111824;28;20085;-64
2022/12/04 01:31:46;;;;;;;56.78;24.75;;;;;;;;;;5111694;28;20036;-64
2022/12/04 01:34:13;;;;;;;59.10;25.55;;;;;;;;;;5112271;28;20044;-64
2022/12/04 01:36:39;;;;;;;53.30;24.92;;;;;;;;;;5111789;28;20035;-64
2022/12/04 01:39:05;;;;;;;60.42;27.00;;;;;;;;;;5112159;28;20114;-64
2022/12/04 01:41:31;;;;;;;57.53;24.05;;;;;;;;;;5112052;28;20039;-64
2022/12/04 01:44:08;;;;;;;54.15;23.65;;;;;;;;;;5110368;28;20088;-64
2022/12/04 01:46:34;;;;;;;58.55;25.45;;;;;;;;;;5111896;28;20447;-64
2022/12/04 01:49:02;;;;;;;54.83;24.48;;;;;;;;;;5112040;28;20122;-64
2022/12/04 01:51:35;;;;;;;59.35;25.98;;;;;;;;;;5111149;28;20071;-64
2022/12/04 01:54:06;;;;;;;58.67;25.27;;;;;;;;;;5111624;28;20458;-64
2022/12/04 01:56:41;;;;;;;61.58;27.08;;;;;;;;;;5111696;28;20040;-64
2022/12/04 01:59:11;;;;;;;60.50;25.73;;;;;;;;;;5111662;28;20065;-64
2022/12/04 02:01:40;;;;;;;53.72;25.45;;;;;;;;;;5111525;28;20085;-64
2022/12/04 02:04:06;;;;;;;59.40;27.15;;;;;;;;;;5101706;28;20054;-64
2022/12/04 02:06:32;;;;;;;63.10;27.65;;;;;;;;;;5091242;28;20040;-64
2022/12/04 02:08:58;;;;;;;59.83;26.67;;;;;;;;;;5097975;28;20054;-64
2022/12/04 02:11:36;;;;;;;60.47;26.88;;;;;;;;;;5111575;28;20122;-64
2022/12/04 02:14:08;;;;;;;58.17;26.88;;;;;;;;;;5111714;28;20109;-64
2022/12/04 02:16:47;;;;;;;56.03;26.65;;;;;;;;;;5111166;28;20096;-64
2022/12/04 02:19:25;;;;;;;61.05;25.40;;;;;;;;;;5111166;28;20087;-64
2022/12/04 02:21:53;;;;;;;59.42;26.45;;;;;;;;;;5111688;28;20349;-64
2022/12/04 02:24:30;;;;;;;54.35;24.95;;;;;;;;;;5113751;28;20136;-64
2022/12/04 02:27:02;;;;;;;58.63;27.00;;;;;;;;;;5115188;28;20035;-64
2022/12/04 02:29:39;;;;;;;56.20;24.97;;;;;;;;;;5115877;28;20036;-64
2022/12/04 02:32:23;;;;;;;63.50;27.20;;;;;;;;;;5115659;28;20073;-64
2022/12/04 02:34:52;;;;;;;59.72;26.85;;;;;;;;;;5115360;28;20063;-64
2022/12/04 02:37:21;;;;;;;55.15;25.83;;;;;;;;;;5115781;28;20067;-64
2022/12/04 02:39:48;;;;;;;59.30;26.17;;;;;;;;;;5115410;28;20093;-64
2022/12/04 02:42:19;;;;;;;53.67;25.05;;;;;;;;;;5115135;28;20035;-64
2022/12/04 02:45:15;;;;;;;59.88;26.55;;;;;;;;;;5115694;28;20039;-64
2022/12/04 02:47:42;;;;;;;57.38;25.85;;;;;;;;;;5098031;28;20089;-64
2022/12/04 02:50:20;;;;;;;58.85;26.30;;;;;;;;;;5114927;28;20036;-64
2022/12/04 02:52:55;;;;;;;60.78;27.05;;;;;;;;;;5115522;27;20114;-64
2022/12/04 02:55:24;;;;;;;60.35;25.13;;;;;;;;;;5115100;28;20097;-64
2022/12/04 02:57:52;;;;;;;63.75;27.70;;;;;;;;;;5114913;28;20078;-64
2022/12/04 03:00:19;;;;;;;59.67;27.08;;;;;;;;;;5115165;28;20039;-64
2022/12/04 03:02:47;;;;;;;62.17;26.58;;;;;;;;;;5115135;28;20042;-64
2022/12/04 03:05:16;;;;;;;57.55;27.10;;;;;;;;;;5094943;28;20536;-64
2022/12/04 03:07:52;;;;;;;59.25;26.73;;;;;;;;;;5094565;28;20047;-64
2022/12/04 03:10:22;;;;;;;64.70;26.85;;;;;;;;;;5112240;28;20043;-64
2022/12/04 03:12:57;;;;;;;62.25;26.90;;;;;;;;;;5114683;28;20042;-64
2022/12/04 03:15:28;;;;;;;61.28;26.63;;;;;;;;;;5114520;28;20055;-64
2022/12/04 03:17:57;;;;;;;58.47;26.15;;;;;;;;;;5114467;28;20040;-64
2022/12/04 03:20:25;;;;;;;57.45;26.40;;;;;;;;;;5114128;28;20047;-64
2022/12/04 03:22:54;;;;;;;63.70;27.77;;;;;;;;;;5114695;28;20098;-64
2022/12/04 03:25:22;;;;;;;65.15;27.65;;;;;;;;;;5114656;28;20071;-64
2022/12/04 03:27:53;;;;;;;64.30;29.25;;;;;;;;;;5114114;28;20035;-64
2022/12/04 03:30:20;;;;;;;64.32;27.90;;;;;;;;;;5114231;28;20112;-64
2022/12/04 03:32:53;;;;;;;61.83;27.77;;;;;;;;;;5114280;28;20044;-64
2022/12/04 03:35:23;;;;;;;63.00;27.50;;;;;;;;;;5112645;28;20051;-64
2022/12/04 03:37:58;;;;;;;65.47;28.17;;;;;;;;;;5114391;28;20046;-64
2022/12/04 03:40:34;;;;;;;58.22;26.95;;;;;;;;;;5113964;27;20505;-64
2022/12/04 03:43:04;;;;;;;63.13;26.20;;;;;;;;;;5114396;28;20055;-64
2022/12/04 03:45:36;;;;;;;64.72;27.88;;;;;;;;;;5114247;28;20043;-64
2022/12/04 03:48:07;;;;;;;65.30;28.00;;;;;;;;;;5113786;28;20051;-64
2022/12/04 03:50:38;;;;;;;60.30;28.07;;;;;;;;;;5113529;28;20088;-64
2022/12/04 03:53:08;;;;;;;64.63;28.92;;;;;;;;;;5114065;28;20032;-64
2022/12/04 03:55:46;;;;;;;60.22;28.13;;;;;;;;;;5113538;28;20423;-64
2022/12/04 03:58:14;;;;;;;60.22;27.27;;;;;;;;;;5113742;28;20054;-64
2022/12/04 04:00:42;;;;;;;67.70;28.33;;;;;;;;;;5113455;28;20043;-64
2022/12/04 04:03:11;;;;;;;69.75;31.70;;;;;;;;;;5111821;28;20043;-64
2022/12/04 04:05:41;;;;;;;63.88;29.58;;;;;;;;;;5093411;28;20478;-64
2022/12/04 04:08:26;;;;;;;65.63;29.90;;;;;;;;;;5093575;28;20127;-64
2022/12/04 04:10:55;;;;;;;61.80;28.17;;;;;;;;;;5092933;28;20036;-64
2022/12/04 04:24:30;;;;;;;61.42;29.00;;;;;;;;;;5093169;28;20044;-64
2022/12/04 04:26:58;;;;;;;66.45;30.05;;;;;;;;;;5110307;28;20036;-64
2022/12/04 04:29:24;;;;;;;62.70;27.38;;;;;;;;;;5113567;28;20047;-64
2022/12/04 04:31:50;;;;;;;67.75;29.48;;;;;;;;;;5113102;28;20079;-64
2022/12/04 04:34:25;;;;;;;65.80;30.15;;;;;;;;;;5112935;28;20035;-64
2022/12/04 04:36:56;;;;;;;69.75;30.23;;;;;;;;;;5113332;28;20043;-64
2022/12/04 04:39:29;;;;;;;70.68;30.15;;;;;;;;;;5113102;28;20565;-64
2022/12/04 04:41:58;;;;;;;67.22;30.65;;;;;;;;;;5112869;28;20048;-64
2022/12/04 04:44:47;;;;;;;64.00;29.33;;;;;;;;;;5113151;28;20039;-64
2022/12/04 04:47:18;;;;;;;65.57;29.77;;;;;;;;;;5101416;28;20059;-64
2022/12/04 04:49:46;;;;;;;68.78;30.77;;;;;;;;;;5113001;28;20054;-64
2022/12/04 04:52:12;;;;;;;69.63;31.15;;;;;;;;;;5112774;28;20040;-64
2022/12/04 04:54:38;;;;;;;65.65;29.30;;;;;;;;;;5112486;28;20578;-64
2022/12/04 04:57:04;;;;;;;73.90;31.10;;;;;;;;;;5112643;28;20142;-64
2022/12/04 04:59:30;;;;;;;65.35;28.40;;;;;;;;;;5112660;28;20032;-64
2022/12/04 05:01:57;;;;;;;67.97;28.30;;;;;;;;;;5112328;28;20440;-64
2022/12/04 05:04:23;;;;;;;70.28;30.15;;;;;;;;;;5100096;28;20044;-64
2022/12/04 05:06:49;;;;;;;71.40;31.20;;;;;;;;;;5092262;28;20180;-64
2022/12/04 05:09:15;;;;;;;60.28;28.20;;;;;;;;;;5099482;28;20452;-64
2022/12/04 05:11:41;;;;;;;65.20;29.23;;;;;;;;;;5112421;28;20047;-64
2022/12/04 05:14:08;;;;;;;70.30;32.05;;;;;;;;;;5112259;28;20040;-64
2022/12/04 05:16:34;;;;;;;67.45;29.77;;;;;;;;;;5112022;28;20050;-64
2022/12/04 05:21:45;;;;;;;68.38;30.00;;;;;;;;;;5112361;28;20044;-64
2022/12/04 05:24:11;;;;;;;65.22;28.80;;;;;;;;;;5112110;28;20062;-64
2022/12/04 05:26:37;;;;;;;62.17;29.40;;;;;;;;;;5112394;28;20541;-64
2022/12/04 05:29:03;;;;;;;66.85;29.33;;;;;;;;;;5112443;28;20054;-64
2022/12/04 05:31:29;;;;;;;71.60;29.70;;;;;;;;;;5111636;28;20044;-64
2022/12/04 05:33:55;;;;;;;66.72;29.20;;;;;;;;;;5112428;28;20164;-64
2022/12/04 05:36:21;;;;;;;66.22;29.20;;;;;;;;;;5112070;28;20040;-64
2022/12/04 05:38:47;;;;;;;60.90;28.88;;;;;;;;;;5111617;28;20035;-64
2022/12/04 05:41:13;;;;;;;65.30;29.10;;;;;;;;;;5112013;28;20044;-64
2022/12/04 05:43:39;;;;;;;64.88;29.00;;;;;;;;;;5112189;28;20039;-64
2022/12/04 05:46:07;;;;;;;64.30;28.48;;;;;;;;;;5112060;28;20039;-64
2022/12/04 05:48:34;;;;;;;59.78;28.25;;;;;;;;;;5111606;28;20131;-64
2022/12/04 05:51:00;;;;;;;63.70;27.60;;;;;;;;;;5111339;28;20050;-64
2022/12/04 05:53:26;;;;;;;60.85;27.27;;;;;;;;;;5112062;28;20470;-64
2022/12/04 05:55:57;;;;;;;65.28;27.83;;;;;;;;;;5111724;28;20036;-64
2022/12/04 05:58:23;;;;;;;62.55;29.05;;;;;;;;;;5111099;28;20032;-64
2022/12/04 06:00:49;;;;;;;66.28;28.98;;;;;;;;;;5111681;28;20079;-64
2022/12/04 06:03:15;;;;;;;64.32;28.02;;;;;;;;;;5108383;28;20044;-64
2022/12/04 06:05:41;;;;;;;69.88;29.17;;;;;;;;;;5091565;28;20556;-64
2022/12/04 06:08:07;;;;;;;64.65;28.73;;;;;;;;;;5090169;28;20086;-64
2022/12/04 06:10:34;;;;;;;60.45;27.20;;;;;;;;;;5110469;28;20494;-64
2022/12/04 06:13:00;;;;;;;57.60;26.45;;;;;;;;;;5111670;28;20069;-64
2022/12/04 06:15:26;;;;;;;62.83;28.27;;;;;;;;;;5111801;28;20071;-64
2022/12/04 06:17:51;;;;;;;60.15;26.95;;;;;;;;;;5111152;28;20514;-64
2022/12/04 06:20:17;;;;;;;63.65;28.15;;;;;;;;;;5111454;28;20067;-64
2022/12/04 06:22:44;;;;;;;60.10;27.27;;;;;;;;;;5111332;28;20044;-64
2022/12/04 06:25:10;;;;;;;62.40;26.80;;;;;;;;;;5110897;28;20043;-64
2022/12/04 06:27:36;;;;;;;61.85;26.25;;;;;;;;;;5111681;28;20062;-64
2022/12/04 06:30:02;;;;;;;61.85;26.70;;;;;;;;;;5111637;28;20038;-64
2022/12/04 06:32:28;;;;;;;59.63;26.73;;;;;;;;;;5111208;28;20442;-64
2022/12/04 06:34:54;;;;;;;59.67;26.20;;;;;;;;;;5111634;28;20118;-64
2022/12/04 06:37:21;;;;;;;62.13;27.08;;;;;;;;;;5111667;28;20118;-64
2022/12/04 06:39:47;;;;;;;60.53;26.63;;;;;;;;;;5111319;28;20096;-64
2022/12/04 06:42:13;;;;;;;64.57;26.98;;;;;;;;;;5111342;28;20040;-64
2022/12/04 06:44:39;;;;;;;59.45;26.83;;;;;;;;;;5111615;28;20411;-64
2022/12/04 06:47:05;;;;;;;59.40;26.52;;;;;;;;;;5111189;28;20124;-64
2022/12/04 06:49:31;;;;;;;58.80;26.77;;;;;;;;;;5111108;28;20043;-64
2022/12/04 06:51:57;;;;;;;63.92;27.20;;;;;;;;;;5111510;28;20566;-64
2022/12/04 06:54:24;;;;;;;63.63;27.23;;;;;;;;;;5111010;28;20031;-64
2022/12/04 06:56:50;;;;;;;60.55;27.50;;;;;;;;;;5111678;28;20075;-64
2022/12/04 06:59:16;;;;;;;61.50;26.83;;;;;;;;;;5111625;28;20497;-64
2022/12/04 07:01:42;;;;;;;58.72;26.38;;;;;;;;;;5110863;28;20204;-64
2022/12/04 07:04:09;;;;;;;61.50;27.20;;;;;;;;;;5101093;28;20044;-64
2022/12/04 07:06:36;;;;;;;63.22;27.23;;;;;;;;;;5090697;28;20134;-64
2022/12/04 07:09:05;;;;;;;64.43;28.80;;;;;;;;;;5098702;28;20047;-64
2022/12/04 07:11:31;;;;;;;64.45;27.25;;;;;;;;;;5114843;28;20040;-64
2022/12/04 07:13:57;;;;;;;61.55;28.25;;;;;;;;;;5114722;28;20047;-64
2022/12/04 07:16:24;;;;;;;59.75;26.75;;;;;;;;;;5114292;28;20379;-64
2022/12/04 07:18:52;;;;;;;68.68;29.10;;;;;;;;;;5114779;28;20114;-64
2022/12/04 07:21:20;;;;;;;62.47;27.08;;;;;;;;;;5114906;28;20039;-64
2022/12/04 07:23:50;;;;;;;65.00;26.80;;;;;;;;;;5114505;28;20122;-64
2022/12/04 07:26:16;;;;;;;62.08;27.15;;;;;;;;;;5114556;28;20370;-64
2022/12/04 07:28:44;;;;;;;61.20;27.15;;;;;;;;;;5114433;28;20463;-64
2022/12/04 07:31:11;;;;;;;64.18;27.80;;;;;;;;;;5113972;28;20375;-64
2022/12/04 07:33:37;;;;;;;63.45;27.55;;;;;;;;;;5114540;28;20035;-64
2022/12/04 07:36:04;;;;;;;65.43;28.77;;;;;;;;;;5114659;28;20074;-64
2022/12/04 07:38:31;;;;;;;60.67;27.95;;;;;;;;;;5114136;28;20375;-64
2022/12/04 07:40:57;;;;;;;62.15;27.05;;;;;;;;;;5114385;28;20407;-64
2022/12/04 07:43:24;;;;;;;64.85;29.25;;;;;;;;;;5114368;28;20497;-64
2022/12/04 07:45:50;;;;;;;63.60;27.88;;;;;;;;;;5114009;28;20658;-64
2022/12/04 07:48:16;;;;;;;62.17;26.90;;;;;;;;;;5114068;28;20043;-64
2022/12/04 07:50:42;;;;;;;65.25;29.38;;;;;;;;;;5114056;28;20051;-64
2022/12/04 07:53:08;;;;;;;67.00;28.20;;;;;;;;;;5113817;28;20118;-64
2022/12/04 07:55:34;;;;;;;62.05;26.98;;;;;;;;;;5114026;28;20046;-64
2022/12/04 07:58:00;;;;;;;61.30;28.10;;;;;;;;;;5113948;28;20079;-64
2022/12/04 08:00:26;;;;;;;66.53;28.83;;;;;;;;;;5113680;28;20044;-64
2022/12/04 08:02:52;;;;;;;64.28;27.83;;;;;;;;;;5113812;28;20043;-64
2022/12/04 08:05:18;;;;;;;63.80;28.30;;;;;;;;;;5093927;28;20515;-64
2022/12/04 08:07:44;;;;;;;65.68;28.83;;;;;;;;;;5093090;28;20259;-64
2022/12/04 08:10:10;;;;;;;66.82;29.35;;;;;;;;;;5110033;28;20046;-64
2022/12/04 08:12:36;;;;;;;62.72;27.55;;;;;;;;;;5113724;28;20378;-64
2022/12/04 08:15:02;;;;;;;61.40;28.02;;;;;;;;;;5113368;28;20603;-64
2022/12/04 08:17:29;;;;;;;69.72;28.38;;;;;;;;;;5113423;28;20060;-64
2022/12/04 08:19:55;;;;;;;67.85;29.10;;;;;;;;;;5112945;28;20038;-64
2022/12/04 08:22:21;;;;;;;62.83;27.63;;;;;;;;;;5113013;28;20128;-64
2022/12/04 08:24:47;;;;;;;60.70;26.33;;;;;;;;;;5113408;28;20039;-64
2022/12/04 08:27:13;;;;;;;66.95;28.50;;;;;;;;;;5113412;28;20036;-64
2022/12/04 08:29:39;;;;;;;64.38;26.80;;;;;;;;;;5113101;28;20126;-64
2022/12/04 08:32:05;;;;;;;62.97;27.83;;;;;;;;;;5113108;28;20071;-64
2022/12/04 08:34:31;;;;;;;61.97;28.52;;;;;;;;;;5113588;28;20035;-64
2022/12/04 08:36:57;;;;;;;64.07;28.92;;;;;;;;;;5113129;28;20370;-64
2022/12/04 08:39:23;;;;;;;68.70;29.23;;;;;;;;;;5113422;28;20043;-64
2022/12/04 08:41:49;;;;;;;67.55;30.00;;;;;;;;;;5113346;28;20047;-64
2022/12/04 08:44:15;;;;;;;65.40;27.92;;;;;;;;;;5112804;28;20058;-64
2022/12/04 08:46:41;;;;;;;65.72;29.77;;;;;;;;;;5113077;28;20047;-64
2022/12/04 08:49:08;;;;;;;69.57;29.50;;;;;;;;;;5112671;28;20042;-64
2022/12/04 08:51:34;;;;;;;62.97;27.67;;;;;;;;;;5112339;28;20558;-64
2022/12/04 08:54:02;;;;;;;64.70;28.65;;;;;;;;;;5113003;28;20046;-64
2022/12/04 08:56:28;;;;;;;68.82;30.05;;;;;;;;;;5113104;28;20074;-64
2022/12/04 08:58:55;;;;;;;62.25;28.20;;;;;;;;;;5112595;28;20078;-64
2022/12/04 09:01:21;;;;;;;68.60;29.33;;;;;;;;;;5112870;28;20044;-64
2022/12/04 09:03:47;;;;;;;67.20;28.00;;;;;;;;;;5105570;28;20043;-64
2022/12/04 09:06:14;;;;;;;66.82;28.80;;;;;;;;;;5091571;28;20039;-64
2022/12/04 09:08:40;;;;;;;68.15;28.63;;;;;;;;;;5096255;28;20040;-64
2022/12/04 09:11:08;;;;;;;68.97;29.08;;;;;;;;;;5112453;28;20074;-64
2022/12/04 09:13:34;;;;;;;62.50;28.67;;;;;;;;;;5112155;28;20036;-64
2022/12/04 09:16:03;;;;;;;69.75;28.60;;;;;;;;;;5112595;28;20036;-64
2022/12/04 09:18:29;;;;;;;68.90;29.52;;;;;;;;;;5110918;28;20402;-64
2022/12/04 09:20:56;;;;;;;64.63;27.60;;;;;;;;;;5101689;28;20111;-64
2022/12/04 09:23:22;;;;;;;63.78;29.23;;;;;;;;;;5112215;28;20042;-64
2022/12/04 09:25:48;;;;;;;64.63;27.60;;;;;;;;;;5104157;28;20387;-64
2022/12/04 09:28:14;;;;;;;71.70;30.27;;;;;;;;;;5091349;28;20051;-65
2022/12/04 09:30:40;;;;;;;65.57;28.33;;;;;;;;;;5090956;28;20089;-64
2022/12/04 09:33:06;;;;;;;67.63;29.48;;;;;;;;;;5105776;28;20039;-64
2022/12/04 09:35:33;;;;;;;65.38;29.23;;;;;;;;;;5111847;28;20039;-65
2022/12/04 09:37:59;;;;;;;65.57;28.17;;;;;;;;;;5111856;28;20371;-65
2022/12/04 09:40:29;;;;;;;64.60;28.55;;;;;;;;;;5111349;28;20039;-64
2022/12/04 09:43:01;;;;;;;67.88;28.38;;;;;;;;;;5112120;28;20047;-64
2022/12/04 09:45:28;;;;;;;67.68;28.58;;;;;;;;;;5111598;28;20043;-64
2022/12/04 09:48:00;;;;;;;65.25;29.67;;;;;;;;;;5111930;28;20470;-64
2022/12/04 09:50:34;;;;;;;64.70;27.98;;;;;;;;;;5110953;28;20043;-64
2022/12/04 09:53:06;;;;;;;63.15;28.08;;;;;;;;;;5110507;28;20035;-64
2022/12/04 09:55:32;;;;;;;;;;;;;;;;;;5112105;28;20041;-64
2022/12/04 09:58:00;;;;;;;55.75;25.52;;;;;;;;;;5111817;28;19916;-64
2022/12/04 10:00:27;;;;;;;66.47;27.67;;;;;;;;;;5111660;28;20043;-64
2022/12/04 10:03:07;;;;;;;66.15;28.67;;;;;;;;;;5111941;28;20043;-64
2022/12/04 10:05:45;;;;;;;63.30;27.77;;;;;;;;;;5091139;28;20043;-65
2022/12/04 10:08:23;;;;;;;61.40;28.95;;;;;;;;;;5090166;28;20059;-64
2022/12/04 10:11:08;;;;;;;58.88;26.38;;;;;;;;;;5091193;28;20086;-64
2022/12/04 10:13:37;;;;;;;61.13;27.17;;;;;;;;;;5091122;28;20051;-64
2022/12/04 10:16:23;;;;;;;63.40;29.30;;;;;;;;;;5091428;28;20040;-64
2022/12/04 10:18:55;;;;;;;57.42;26.23;;;;;;;;;;5091164;28;20059;-64
2022/12/04 10:21:25;;;;;;;65.00;28.15;;;;;;;;;;5091084;28;20110;-64
2022/12/04 10:23:51;;;;;;;61.95;27.02;;;;;;;;;;5091644;28;20420;-64
2022/12/04 10:26:19;;;;;;;58.95;25.95;;;;;;;;;;5103406;28;20051;-64
2022/12/04 10:28:54;;;;;;;58.50;27.52;;;;;;;;;;5111439;28;20675;-64
2022/12/04 10:31:20;;;;;;;61.58;27.35;;;;;;;;;;5111521;28;20669;-64
2022/12/04 10:33:49;;;;;;;56.58;25.48;;;;;;;;;;5111392;28;20092;-64
2022/12/04 10:36:24;;;;;;;55.17;25.50;;;;;;;;;;5111096;28;20074;-64
2022/12/04 10:38:55;;;;;;;55.53;25.38;;;;;;;;;;5110900;28;20036;-64
2022/12/04 10:41:36;;;;;;;51.37;24.17;;;;;;;;;;5111471;28;20440;-64
2022/12/04 10:44:02;;;;;;;51.85;23.75;;;;;;;;;;5112108;28;20063;-64
2022/12/04 10:46:29;;;;;;;58.17;25.60;;;;;;;;;;5114576;28;20539;-64
2022/12/04 10:49:02;;;;;;;53.53;24.10;;;;;;;;;;5114653;28;20040;-64
2022/12/04 10:51:33;;;;;;;52.63;23.90;;;;;;;;;;5114121;28;20124;-64
2022/12/04 10:53:59;;;;;;;51.65;23.88;;;;;;;;;;5114825;28;20097;-64
2022/12/04 10:56:25;;;;;;;50.22;23.40;;;;;;;;;;5113254;28;20066;-64
2022/12/04 10:58:56;;;;;;;51.03;22.77;;;;;;;;;;5114381;28;20069;-64
2022/12/04 11:01:22;;;;;;;52.67;23.85;;;;;;;;;;5114762;28;20272;-64
2022/12/04 11:03:55;;;;;;;49.30;22.48;;;;;;;;;;5107754;28;20402;-64
2022/12/04 11:06:25;;;;;;;50.55;23.10;;;;;;;;;;5094400;28;20035;-64
2022/12/04 11:08:52;;;;;;;49.40;23.10;;;;;;;;;;5100065;28;20058;-64
2022/12/04 11:11:31;;;;;;;45.83;21.63;;;;;;;;;;5114815;28;20053;-64
2022/12/04 11:14:16;;;;;;;45.67;22.30;;;;;;;;;;5114515;28;20038;-64
2022/12/04 11:16:43;;;;;;;44.15;21.38;;;;;;;;;;5114717;28;20035;-64
2022/12/04 11:19:20;;;;;;;42.55;21.45;;;;;;;;;;5114711;28;20447;-64
2022/12/04 11:21:46;;;;;;;46.30;22.13;;;;;;;;;;5114743;28;20071;-64
2022/12/04 11:24:21;;;;;;;41.95;21.10;;;;;;;;;;5114892;28;20039;-64
2022/12/04 11:26:48;;;;;;;39.17;19.92;;;;;;;;;;5114526;28;20047;-64
2022/12/04 11:29:15;;;;;;;39.75;19.40;;;;;;;;;;5114747;28;20044;-64
2022/12/04 11:31:46;;;;;;;44.10;21.33;;;;;;;;;;5114470;28;20362;-64
2022/12/04 11:34:20;;;;;;;41.60;19.90;;;;;;;;;;5114258;28;20447;-64
2022/12/04 11:36:51;;;;;;;39.67;19.15;;;;;;;;;;5114615;28;20050;-64
2022/12/04 11:39:26;;;;;;;36.70;18.52;;;;;;;;;;5114843;28;20047;-64
2022/12/04 11:42:02;;;;;;;36.28;18.27;;;;;;;;;;5114098;28;20530;-64
2022/12/04 11:44:31;;;;;;;38.47;18.55;;;;;;;;;;5114050;28;20039;-64
2022/12/04 11:46:58;;;;;;;33.45;16.95;;;;;;;;;;5114278;28;20058;-64
2022/12/04 11:49:25;;;;;;;36.40;16.67;;;;;;;;;;5114113;28;20043;-64
2022/12/04 11:52:00;;;;;;;33.83;17.30;;;;;;;;;;5114156;28;20039;-64
2022/12/04 11:54:37;;;;;;;31.10;16.25;;;;;;;;;;5113934;28;20036;-64
2022/12/04 11:57:13;;;;;;;35.67;16.48;;;;;;;;;;5113046;28;20043;-64
2022/12/04 11:59:55;;;;;;;33.00;17.35;;;;;;;;;;5113860;28;20153;-64
2022/12/04 12:02:30;;;;;;;36.72;16.98;;;;;;;;;;5114080;28;20039;-64
2022/12/04 12:05:11;;;;;;;34.83;17.05;;;;;;;;;;5096745;28;20044;-64
2022/12/04 12:07:42;;;;;;;32.13;16.70;;;;;;;;;;5093708;28;20047;-64
2022/12/04 12:10:14;;;;;;;38.10;18.02;;;;;;;;;;5109261;28;20046;-64
2022/12/04 12:12:44;;;;;;;34.88;16.98;;;;;;;;;;5113455;28;20067;-64
2022/12/04 12:15:11;;;;;;;31.83;16.38;;;;;;;;;;5113787;28;20032;-64
2022/12/04 12:17:58;;;;;;;40.05;17.70;;;;;;;;;;5113517;28;20105;-64
2022/12/04 12:20:40;;;;;;;35.72;17.70;;;;;;;;;;5113287;28;20584;-64
2022/12/04 12:23:42;;;;;;;31.50;15.80;;;;;;;;;;5112385;28;20053;-64
2022/12/04 12:26:10;;;;;;;34.38;16.40;;;;;;;;;;5029623;28;20045;-64
2022/12/04 12:28:45;;;;;;;33.97;16.25;;;;;;;;;;5081298;28;20051;-64
2022/12/04 12:31:21;;;;;;;35.45;16.40;;;;;;;;;;5093178;28;20043;-64
2022/12/04 12:33:58;;;;;;;31.92;16.52;;;;;;;;;;5092831;28;20036;-64
2022/12/04 12:36:25;;;;;;;29.67;15.85;;;;;;;;;;5093162;28;20075;-64
2022/12/04 12:39:00;;;;;;;36.95;17.15;;;;;;;;;;5092609;28;20089;-64
2022/12/04 12:41:50;;;;;;;37.90;17.02;;;;;;;;;;5092318;28;20135;-64
2022/12/04 12:44:26;;;;;;;34.97;16.73;;;;;;;;;;5084411;28;20461;-64
2022/12/04 12:46:53;;;;;;;37.85;18.33;;;;;;;;;;5092758;28;20071;-64
2022/12/04 12:49:20;;;;;;;37.72;17.35;;;;;;;;;;5091967;28;20135;-64
2022/12/04 12:52:02;;;;;;;36.35;19.13;;;;;;;;;;5090898;28;20040;-64
2022/12/04 12:54:45;;;;;;;36.63;17.23;;;;;;;;;;5092788;28;20442;-64
2022/12/04 12:57:14;;;;;;;38.05;15.98;;;;;;;;;;5092079;28;20040;-66
2022/12/04 12:59:48;;;;;;;36.55;17.13;;;;;;;;;;5092634;28;20050;-66
2022/12/04 13:02:33;;;;;;;35.83;18.33;;;;;;;;;;5092325;28;20359;-66
2022/12/04 13:05:03;;;;;;;39.28;18.48;;;;;;;;;;5109340;28;20046;-66
2022/12/04 13:07:41;;;;;;;36.45;16.83;;;;;;;;;;5112453;28;20482;-66
2022/12/04 13:10:07;;;;;;;31.20;16.13;;;;;;;;;;5112522;28;20046;-66
2022/12/04 13:12:43;;;;;;;33.72;16.80;;;;;;;;;;5112037;28;20552;-66
2022/12/04 13:15:13;;;;;;;29.65;15.68;;;;;;;;;;5112413;28;20042;-66
2022/12/04 13:17:39;;;;;;;35.92;17.23;;;;;;;;;;5111768;28;20048;-66
2022/12/04 13:20:11;;;;;;;35.85;16.65;;;;;;;;;;5112144;28;20039;-66
2022/12/04 13:22:55;;;;;;;33.00;16.45;;;;;;;;;;5112432;28;20024;-66
2022/12/04 13:25:34;;;;;;;32.20;15.90;;;;;;;;;;5111786;28;20032;-66
2022/12/04 13:28:13;;;;;;;31.95;16.95;;;;;;;;;;5110958;28;20438;-66
2022/12/04 13:30:39;;;;;;;33.63;16.52;;;;;;;;;;5112115;28;20047;-66
2022/12/04 13:33:15;;;;;;;33.20;16.52;;;;;;;;;;5111794;28;20466;-66
2022/12/04 13:35:44;;;;;;;30.35;15.15;;;;;;;;;;5112291;28;20043;-66
2022/12/04 13:38:29;;;;;;;37.60;17.92;;;;;;;;;;5112144;28;20046;-66
2022/12/04 13:40:57;;;;;;;36.72;16.83;;;;;;;;;;5111785;28;20087;-66
2022/12/04 13:43:25;;;;;;;31.42;16.50;;;;;;;;;;5112066;28;20067;-66
2022/12/04 13:45:53;;;;;;;32.75;16.95;;;;;;;;;;5112144;28;20059;-66
2022/12/04 13:48:26;;;;;;;32.30;15.90;;;;;;;;;;5111745;28;20040;-66
2022/12/04 13:51:00;;;;;;;34.95;18.45;;;;;;;;;;5111966;28;20185;-66
2022/12/04 13:53:38;;;;;;;34.78;17.10;;;;;;;;;;5112129;28;20493;-66
2022/12/04 13:56:04;;;;;;;32.80;16.58;;;;;;;;;;5111465;28;20043;-66
2022/12/04 13:58:31;;;;;;;33.58;18.02;;;;;;;;;;5112014;28;20043;-66
2022/12/04 14:01:21;;;;;;;34.53;17.60;;;;;;;;;;5111807;28;20088;-66
2022/12/04 14:03:49;;;;;;;33.97;16.48;;;;;;;;;;5104388;28;20110;-66
2022/12/04 14:06:47;;;;;;;32.83;17.10;;;;;;;;;;5091612;28;20079;-66
2022/12/04 14:09:19;;;;;;;34.05;17.45;;;;;;;;;;5054948;28;20052;-66
2022/12/04 14:11:46;;;;;;;36.28;17.25;;;;;;;;;;5111043;28;20441;-66
2022/12/04 14:14:23;;;;;;;37.80;18.15;;;;;;;;;;5111863;28;20469;-66
2022/12/04 14:16:50;;;;;;;40.40;17.85;;;;;;;;;;5111421;28;20379;-66
2022/12/04 14:19:45;;;;;;;36.35;18.73;;;;;;;;;;5113407;28;20047;-66
2022/12/04 14:22:27;;;;;;;35.20;17.52;;;;;;;;;;5098484;28;20054;-66
2022/12/04 14:25:04;;;;;;;37.40;18.30;;;;;;;;;;5115233;28;20039;-66
2022/12/04 14:27:42;;;;;;;36.42;18.27;;;;;;;;;;5115865;28;20439;-66
2022/12/04 14:30:18;;;;;;;33.60;16.83;;;;;;;;;;5115726;28;20038;-66
2022/12/04 14:32:45;;;;;;;36.15;17.25;;;;;;;;;;5115242;28;20048;-66
2022/12/04 14:35:16;;;;;;;35.83;18.10;;;;;;;;;;5115860;28;20043;-66
2022/12/04 14:37:48;;;;;;;37.55;17.45;;;;;;;;;;5115818;28;20434;-66
2022/12/04 14:40:20;;;;;;;42.90;18.38;;;;;;;;;;5115298;28;20559;-66
2022/12/04 14:42:47;;;;;;;39.97;17.85;;;;;;;;;;5115381;28;20063;-66
2022/12/04 14:45:39;;;;;;;36.13;17.95;;;;;;;;;;5115360;28;20040;-66
2022/12/04 14:48:08;;;;;;;37.20;18.02;;;;;;;;;;5111183;28;20047;-66